sensor_id;sensor_type;location;lat;lon;timestamp;pressure;altitude;pressure_sealevel;temperature;humidity
52719;BME280;38616;42.140;24.760;2023-05-27T00:00:54;99459.38;;;17.73;65.31
52719;BME280;38616;42.140;24.760;2023-05-27T00:03:19;99454.50;;;17.79;65.41
52719;BME280;38616;42.140;24.760;2023-05-27T00:05:45;99443.88;;;17.98;64.34
52719;BME280;38616;42.140;24.760;2023-05-27T00:08:10;99438.88;;;17.92;64.26
52719;BME280;38616;42.140;24.760;2023-05-27T00:10:35;99437.00;;;17.83;64.47
52719;BME280;38616;42.140;24.760;2023-05-27T00:13:01;99441.63;;;17.70;64.47
52719;BME280;38616;42.140;24.760;2023-05-27T00:15:26;99443.69;;;17.43;65.19
52719;BME280;38616;42.140;24.760;2023-05-27T00:17:52;99442.50;;;17.83;64.80
52719;BME280;38616;42.140;24.760;2023-05-27T00:20:17;99440.09;;;17.82;63.96
52719;BME280;38616;42.140;24.760;2023-05-27T00:22:44;99439.91;;;17.87;64.15
52719;BME280;38616;42.140;24.760;2023-05-27T00:25:10;99440.13;;;17.73;64.53
52719;BME280;38616;42.140;24.760;2023-05-27T00:27:35;99435.03;;;17.63;65.04
52719;BME280;38616;42.140;24.760;2023-05-27T00:30:04;99426.72;;;17.50;65.35
52719;BME280;38616;42.140;24.760;2023-05-27T00:32:29;99428.94;;;17.57;65.47
52719;BME280;38616;42.140;24.760;2023-05-27T00:34:55;99423.41;;;17.66;64.87
52719;BME280;38616;42.140;24.760;2023-05-27T00:37:20;99419.41;;;17.54;65.38
52719;BME280;38616;42.140;24.760;2023-05-27T00:39:45;99411.69;;;17.48;65.18
52719;BME280;38616;42.140;24.760;2023-05-27T00:42:11;99408.09;;;17.56;64.79
52719;BME280;38616;42.140;24.760;2023-05-27T00:44:37;99412.41;;;17.66;65.04
52719;BME280;38616;42.140;24.760;2023-05-27T00:47:02;99416.69;;;17.54;65.40
52719;BME280;38616;42.140;24.760;2023-05-27T00:49:27;99404.09;;;17.53;65.72
52719;BME280;38616;42.140;24.760;2023-05-27T00:51:53;99410.31;;;17.33;66.17
52719;BME280;38616;42.140;24.760;2023-05-27T00:54:19;99403.34;;;17.35;66.04
52719;BME280;38616;42.140;24.760;2023-05-27T00:56:44;99411.19;;;17.54;65.29
52719;BME280;38616;42.140;24.760;2023-05-27T00:59:09;99411.84;;;17.51;65.16
52719;BME280;38616;42.140;24.760;2023-05-27T01:01:36;99411.31;;;17.58;65.03
52719;BME280;38616;42.140;24.760;2023-05-27T01:04:04;99411.97;;;17.55;65.14
52719;BME280;38616;42.140;24.760;2023-05-27T01:12:15;99412.25;;;17.62;63.87
52719;BME280;38616;42.140;24.760;2023-05-27T01:14:43;99406.19;;;17.48;64.14
52719;BME280;38616;42.140;24.760;2023-05-27T01:17:11;99401.75;;;17.64;63.86
52719;BME280;38616;42.140;24.760;2023-05-27T01:19:40;99418.69;;;17.66;63.06
52719;BME280;38616;42.140;24.760;2023-05-27T01:22:11;99413.75;;;17.60;62.92
52719;BME280;38616;42.140;24.760;2023-05-27T01:24:37;99419.28;;;17.72;62.89
52719;BME280;38616;42.140;24.760;2023-05-27T01:27:02;99411.06;;;17.72;62.98
52719;BME280;38616;42.140;24.760;2023-05-27T01:29:29;99401.56;;;17.91;62.10
52719;BME280;38616;42.140;24.760;2023-05-27T01:34:53;99399.44;;;17.96;61.73
52719;BME280;38616;42.140;24.760;2023-05-27T01:37:23;99403.81;;;18.19;61.28
52719;BME280;38616;42.140;24.760;2023-05-27T01:39:53;99393.53;;;18.28;61.04
52719;BME280;38616;42.140;24.760;2023-05-27T01:42:20;99393.09;;;18.05;61.52
52719;BME280;38616;42.140;24.760;2023-05-27T01:44:46;99408.66;;;17.92;62.03
52719;BME280;38616;42.140;24.760;2023-05-27T01:47:12;99399.47;;;17.87;62.42
52719;BME280;38616;42.140;24.760;2023-05-27T01:49:37;99392.44;;;17.99;61.82
52719;BME280;38616;42.140;24.760;2023-05-27T01:52:02;99383.63;;;18.14;61.27
52719;BME280;38616;42.140;24.760;2023-05-27T01:54:28;99390.53;;;18.21;61.33
52719;BME280;38616;42.140;24.760;2023-05-27T01:56:53;99386.00;;;17.95;61.60
52719;BME280;38616;42.140;24.760;2023-05-27T01:59:19;99391.03;;;18.01;62.01
52719;BME280;38616;42.140;24.760;2023-05-27T02:01:44;99393.78;;;18.01;61.76
52719;BME280;38616;42.140;24.760;2023-05-27T02:04:10;99386.94;;;17.99;61.95
52719;BME280;38616;42.140;24.760;2023-05-27T02:06:35;99394.81;;;18.09;61.62
52719;BME280;38616;42.140;24.760;2023-05-27T02:09:04;99398.44;;;18.01;61.51
52719;BME280;38616;42.140;24.760;2023-05-27T02:11:29;99382.34;;;18.12;61.47
52719;BME280;38616;42.140;24.760;2023-05-27T02:13:55;99390.25;;;18.13;61.56
52719;BME280;38616;42.140;24.760;2023-05-27T02:16:21;99385.34;;;18.19;61.25
52719;BME280;38616;42.140;24.760;2023-05-27T02:18:49;99386.03;;;18.37;60.60
52719;BME280;38616;42.140;24.760;2023-05-27T02:21:15;99378.72;;;17.99;61.67
52719;BME280;38616;42.140;24.760;2023-05-27T02:23:40;99378.25;;;17.97;61.92
52719;BME280;38616;42.140;24.760;2023-05-27T02:26:06;99378.13;;;18.14;61.72
52719;BME280;38616;42.140;24.760;2023-05-27T02:28:31;99381.75;;;18.06;61.80
52719;BME280;38616;42.140;24.760;2023-05-27T02:30:57;99380.25;;;18.30;61.32
52719;BME280;38616;42.140;24.760;2023-05-27T02:33:23;99367.56;;;18.38;61.13
52719;BME280;38616;42.140;24.760;2023-05-27T02:35:49;99362.47;;;18.27;60.96
52719;BME280;38616;42.140;24.760;2023-05-27T02:38:14;99367.72;;;18.41;60.69
52719;BME280;38616;42.140;24.760;2023-05-27T02:40:40;99376.00;;;18.54;60.71
52719;BME280;38616;42.140;24.760;2023-05-27T02:43:05;99374.38;;;18.53;59.97
52719;BME280;38616;42.140;24.760;2023-05-27T02:45:31;99381.75;;;18.73;59.46
52719;BME280;38616;42.140;24.760;2023-05-27T02:47:57;99384.22;;;18.41;60.06
52719;BME280;38616;42.140;24.760;2023-05-27T02:50:25;99379.13;;;18.31;60.41
52719;BME280;38616;42.140;24.760;2023-05-27T02:52:50;99381.81;;;18.52;60.01
52719;BME280;38616;42.140;24.760;2023-05-27T02:55:15;99380.78;;;18.57;59.76
52719;BME280;38616;42.140;24.760;2023-05-27T02:57:41;99384.03;;;18.71;59.71
52719;BME280;38616;42.140;24.760;2023-05-27T03:00:07;99380.28;;;18.76;59.37
52719;BME280;38616;42.140;24.760;2023-05-27T03:02:34;99381.44;;;18.75;59.20
52719;BME280;38616;42.140;24.760;2023-05-27T03:04:59;99388.50;;;18.64;59.71
52719;BME280;38616;42.140;24.760;2023-05-27T03:07:27;99386.72;;;18.80;59.23
52719;BME280;38616;42.140;24.760;2023-05-27T03:09:57;99384.94;;;18.63;59.15
52719;BME280;38616;42.140;24.760;2023-05-27T03:12:23;99389.28;;;18.64;58.93
52719;BME280;38616;42.140;24.760;2023-05-27T03:14:49;99396.22;;;18.83;58.56
52719;BME280;38616;42.140;24.760;2023-05-27T03:17:15;99400.03;;;18.57;59.13
52719;BME280;38616;42.140;24.760;2023-05-27T03:19:40;99404.34;;;18.67;59.19
52719;BME280;38616;42.140;24.760;2023-05-27T03:22:07;99396.66;;;18.72;59.04
52719;BME280;38616;42.140;24.760;2023-05-27T03:24:32;99403.72;;;18.49;59.40
52719;BME280;38616;42.140;24.760;2023-05-27T03:26:59;99401.16;;;18.43;59.57
52719;BME280;38616;42.140;24.760;2023-05-27T03:29:24;99401.78;;;18.61;58.85
52719;BME280;38616;42.140;24.760;2023-05-27T03:31:50;99401.53;;;18.54;58.92
52719;BME280;38616;42.140;24.760;2023-05-27T03:34:15;99400.34;;;18.76;58.57
52719;BME280;38616;42.140;24.760;2023-05-27T03:36:41;99402.97;;;18.73;58.28
52719;BME280;38616;42.140;24.760;2023-05-27T03:39:08;99399.66;;;18.80;57.45
52719;BME280;38616;42.140;24.760;2023-05-27T03:41:34;99403.75;;;18.73;57.65
52719;BME280;38616;42.140;24.760;2023-05-27T03:44:00;99402.03;;;18.69;58.54
52719;BME280;38616;42.140;24.760;2023-05-27T03:46:25;99414.25;;;18.59;58.44
52719;BME280;38616;42.140;24.760;2023-05-27T03:48:50;99417.38;;;18.57;58.70
52719;BME280;38616;42.140;24.760;2023-05-27T03:51:16;99420.69;;;18.51;58.85
52719;BME280;38616;42.140;24.760;2023-05-27T03:53:41;99414.78;;;18.73;58.36
52719;BME280;38616;42.140;24.760;2023-05-27T03:56:07;99415.63;;;18.86;58.04
52719;BME280;38616;42.140;24.760;2023-05-27T03:58:32;99420.69;;;18.63;58.46
52719;BME280;38616;42.140;24.760;2023-05-27T04:00:58;99417.00;;;18.59;58.90
52719;BME280;38616;42.140;24.760;2023-05-27T04:03:23;99427.31;;;18.50;59.02
52719;BME280;38616;42.140;24.760;2023-05-27T04:05:48;99419.66;;;18.55;58.82
52719;BME280;38616;42.140;24.760;2023-05-27T04:08:14;99419.75;;;18.59;58.92
52719;BME280;38616;42.140;24.760;2023-05-27T04:10:39;99434.16;;;18.43;59.46
52719;BME280;38616;42.140;24.760;2023-05-27T04:13:05;99425.28;;;18.59;59.11
52719;BME280;38616;42.140;24.760;2023-05-27T04:15:31;99427.69;;;18.60;59.17
52719;BME280;38616;42.140;24.760;2023-05-27T04:17:57;99430.78;;;18.93;58.55
52719;BME280;38616;42.140;24.760;2023-05-27T04:20:23;99425.09;;;18.76;58.48
52719;BME280;38616;42.140;24.760;2023-05-27T04:22:48;99424.19;;;18.85;58.16
52719;BME280;38616;42.140;24.760;2023-05-27T04:25:14;99429.03;;;18.88;58.46
52719;BME280;38616;42.140;24.760;2023-05-27T04:27:39;99435.47;;;18.92;57.78
52719;BME280;38616;42.140;24.760;2023-05-27T04:30:05;99439.63;;;18.98;57.73
52719;BME280;38616;42.140;24.760;2023-05-27T04:32:31;99442.53;;;19.14;57.39
52719;BME280;38616;42.140;24.760;2023-05-27T04:35:04;99433.47;;;19.14;57.26
52719;BME280;38616;42.140;24.760;2023-05-27T04:37:30;99437.00;;;19.14;56.98
52719;BME280;38616;42.140;24.760;2023-05-27T04:39:58;99443.34;;;19.27;57.08
52719;BME280;38616;42.140;24.760;2023-05-27T04:42:24;99445.75;;;19.29;56.58
52719;BME280;38616;42.140;24.760;2023-05-27T04:44:50;99435.19;;;19.18;56.92
52719;BME280;38616;42.140;24.760;2023-05-27T04:47:16;99438.84;;;19.10;57.32
52719;BME280;38616;42.140;24.760;2023-05-27T04:49:41;99432.47;;;18.85;58.14
52719;BME280;38616;42.140;24.760;2023-05-27T04:52:07;99441.84;;;18.84;58.68
52719;BME280;38616;42.140;24.760;2023-05-27T04:54:33;99449.84;;;18.76;59.13
52719;BME280;38616;42.140;24.760;2023-05-27T04:56:58;99451.94;;;18.80;59.01
52719;BME280;38616;42.140;24.760;2023-05-27T04:59:24;99444.03;;;18.78;59.23
52719;BME280;38616;42.140;24.760;2023-05-27T05:02:00;99459.34;;;18.67;59.75
52719;BME280;38616;42.140;24.760;2023-05-27T05:04:36;99440.72;;;18.85;59.51
52719;BME280;38616;42.140;24.760;2023-05-27T05:07:02;99453.28;;;19.07;59.37
52719;BME280;38616;42.140;24.760;2023-05-27T05:09:29;99444.00;;;18.99;59.76
52719;BME280;38616;42.140;24.760;2023-05-27T05:11:54;99445.50;;;18.97;59.93
52719;BME280;38616;42.140;24.760;2023-05-27T05:14:20;99445.53;;;19.46;59.26
52719;BME280;38616;42.140;24.760;2023-05-27T05:16:45;99454.13;;;19.57;58.29
52719;BME280;38616;42.140;24.760;2023-05-27T05:19:11;99449.16;;;19.88;57.30
52719;BME280;38616;42.140;24.760;2023-05-27T05:21:36;99450.69;;;19.85;57.31
52719;BME280;38616;42.140;24.760;2023-05-27T05:24:02;99443.78;;;20.04;56.85
52719;BME280;38616;42.140;24.760;2023-05-27T05:26:29;99447.81;;;19.82;56.77
52719;BME280;38616;42.140;24.760;2023-05-27T05:28:54;99450.81;;;19.76;57.01
52719;BME280;38616;42.140;24.760;2023-05-27T05:31:20;99460.34;;;19.54;56.62
52719;BME280;38616;42.140;24.760;2023-05-27T05:33:45;99457.56;;;19.54;57.40
52719;BME280;38616;42.140;24.760;2023-05-27T05:36:11;99457.34;;;19.47;57.13
52719;BME280;38616;42.140;24.760;2023-05-27T05:38:37;99453.94;;;19.38;57.19
52719;BME280;38616;42.140;24.760;2023-05-27T05:41:03;99459.41;;;19.50;57.68
52719;BME280;38616;42.140;24.760;2023-05-27T05:43:29;99450.59;;;19.82;56.39
52719;BME280;38616;42.140;24.760;2023-05-27T05:45:54;99452.41;;;20.02;54.85
52719;BME280;38616;42.140;24.760;2023-05-27T05:48:20;99454.47;;;19.93;54.17
52719;BME280;38616;42.140;24.760;2023-05-27T05:50:45;99457.22;;;19.93;54.25
52719;BME280;38616;42.140;24.760;2023-05-27T05:53:11;99452.84;;;20.04;54.38
52719;BME280;38616;42.140;24.760;2023-05-27T05:55:36;99436.84;;;20.22;52.87
52719;BME280;38616;42.140;24.760;2023-05-27T05:58:02;99447.19;;;20.26;52.61
52719;BME280;38616;42.140;24.760;2023-05-27T06:00:28;99462.16;;;20.53;52.21
52719;BME280;38616;42.140;24.760;2023-05-27T06:02:53;99462.47;;;20.23;52.10
52719;BME280;38616;42.140;24.760;2023-05-27T06:05:19;99474.09;;;20.16;52.74
52719;BME280;38616;42.140;24.760;2023-05-27T06:07:44;99465.59;;;20.21;52.41
52719;BME280;38616;42.140;24.760;2023-05-27T06:10:10;99465.63;;;19.84;53.31
52719;BME280;38616;42.140;24.760;2023-05-27T06:12:36;99473.41;;;19.82;53.60
52719;BME280;38616;42.140;24.760;2023-05-27T06:15:02;99472.50;;;20.03;53.30
52719;BME280;38616;42.140;24.760;2023-05-27T06:17:28;99475.94;;;19.75;53.59
52719;BME280;38616;42.140;24.760;2023-05-27T06:19:53;99481.00;;;19.85;54.10
52719;BME280;38616;42.140;24.760;2023-05-27T06:22:18;99485.25;;;20.07;53.64
52719;BME280;38616;42.140;24.760;2023-05-27T06:24:44;99490.19;;;19.77;55.23
52719;BME280;38616;42.140;24.760;2023-05-27T06:27:09;99491.47;;;19.92;54.71
52719;BME280;38616;42.140;24.760;2023-05-27T06:29:35;99495.69;;;19.77;55.46
52719;BME280;38616;42.140;24.760;2023-05-27T06:32:01;99498.00;;;19.75;56.14
52719;BME280;38616;42.140;24.760;2023-05-27T06:34:26;99494.75;;;19.48;56.73
52719;BME280;38616;42.140;24.760;2023-05-27T06:36:51;99484.31;;;19.41;56.98
52719;BME280;38616;42.140;24.760;2023-05-27T06:39:17;99491.91;;;19.44;56.90
52719;BME280;38616;42.140;24.760;2023-05-27T06:41:43;99499.72;;;19.67;56.44
52719;BME280;38616;42.140;24.760;2023-05-27T06:44:08;99495.69;;;19.77;55.98
52719;BME280;38616;42.140;24.760;2023-05-27T06:46:33;99491.22;;;19.60;56.57
52719;BME280;38616;42.140;24.760;2023-05-27T06:48:59;99497.75;;;19.68;56.36
52719;BME280;38616;42.140;24.760;2023-05-27T06:51:24;99500.16;;;19.44;57.25
52719;BME280;38616;42.140;24.760;2023-05-27T06:53:50;99499.47;;;19.35;57.73
52719;BME280;38616;42.140;24.760;2023-05-27T06:56:15;99493.06;;;19.56;57.27
52719;BME280;38616;42.140;24.760;2023-05-27T06:58:41;99495.69;;;19.64;57.10
52719;BME280;38616;42.140;24.760;2023-05-27T07:01:06;99500.44;;;19.76;57.27
52719;BME280;38616;42.140;24.760;2023-05-27T07:03:32;99498.00;;;19.75;57.61
52719;BME280;38616;42.140;24.760;2023-05-27T07:05:58;99506.38;;;20.03;57.11
52719;BME280;38616;42.140;24.760;2023-05-27T07:08:23;99504.66;;;20.23;57.13
52719;BME280;38616;42.140;24.760;2023-05-27T07:10:49;99510.63;;;19.76;58.17
52719;BME280;38616;42.140;24.760;2023-05-27T07:13:14;99498.00;;;19.75;58.34
52719;BME280;38616;42.140;24.760;2023-05-27T07:15:40;99501.44;;;19.84;58.10
52719;BME280;38616;42.140;24.760;2023-05-27T07:18:06;99501.53;;;19.88;58.24
52719;BME280;38616;42.140;24.760;2023-05-27T07:20:32;99503.13;;;20.26;57.54
52719;BME280;38616;42.140;24.760;2023-05-27T07:22:58;99499.47;;;20.22;56.73
52719;BME280;38616;42.140;24.760;2023-05-27T07:25:25;99504.75;;;20.27;56.92
52719;BME280;38616;42.140;24.760;2023-05-27T07:27:51;99510.44;;;19.93;57.46
52719;BME280;38616;42.140;24.760;2023-05-27T07:30:16;99507.41;;;19.74;58.11
52719;BME280;38616;42.140;24.760;2023-05-27T07:32:42;99512.94;;;19.86;57.98
52719;BME280;38616;42.140;24.760;2023-05-27T07:35:07;99510.03;;;20.20;57.25
52719;BME280;38616;42.140;24.760;2023-05-27T07:37:33;99515.22;;;20.62;56.28
52719;BME280;38616;42.140;24.760;2023-05-27T07:39:58;99521.53;;;20.63;57.29
52719;BME280;38616;42.140;24.760;2023-05-27T07:42:24;99514.41;;;20.62;58.02
52719;BME280;38616;42.140;24.760;2023-05-27T07:44:49;99512.34;;;20.59;58.49
52719;BME280;38616;42.140;24.760;2023-05-27T07:47:15;99512.56;;;20.66;58.29
52719;BME280;38616;42.140;24.760;2023-05-27T07:49:42;99505.19;;;20.70;58.84
52719;BME280;38616;42.140;24.760;2023-05-27T07:52:08;99503.50;;;20.65;59.13
52719;BME280;38616;42.140;24.760;2023-05-27T07:54:33;99499.47;;;20.63;59.74
52719;BME280;38616;42.140;24.760;2023-05-27T07:56:58;99505.38;;;20.90;58.79
52719;BME280;38616;42.140;24.760;2023-05-27T07:59:24;99510.72;;;20.99;58.65
52719;BME280;38616;42.140;24.760;2023-05-27T08:01:50;99503.00;;;21.36;57.43
52719;BME280;38616;42.140;24.760;2023-05-27T08:04:15;99507.50;;;21.41;56.59
52719;BME280;38616;42.140;24.760;2023-05-27T08:06:40;99513.53;;;21.47;55.52
52719;BME280;38616;42.140;24.760;2023-05-27T08:09:06;99512.00;;;21.33;55.27
52719;BME280;38616;42.140;24.760;2023-05-27T08:11:33;99519.94;;;21.19;55.49
52719;BME280;38616;42.140;24.760;2023-05-27T08:13:59;99522.44;;;21.24;55.41
52719;BME280;38616;42.140;24.760;2023-05-27T08:16:25;99520.28;;;21.17;55.86
52719;BME280;38616;42.140;24.760;2023-05-27T08:18:50;99528.66;;;21.21;55.95
52719;BME280;38616;42.140;24.760;2023-05-27T08:23:43;99517.34;;;21.26;56.70
52719;BME280;38616;42.140;24.760;2023-05-27T08:26:09;99525.31;;;21.44;56.48
52719;BME280;38616;42.140;24.760;2023-05-27T08:28:34;99528.69;;;21.37;56.58
52719;BME280;38616;42.140;24.760;2023-05-27T08:31:02;99537.97;;;21.45;57.70
52719;BME280;38616;42.140;24.760;2023-05-27T08:33:28;99526.19;;;21.32;58.32
52719;BME280;38616;42.140;24.760;2023-05-27T08:35:53;99528.97;;;21.32;58.94
52719;BME280;38616;42.140;24.760;2023-05-27T08:38:18;99522.47;;;21.40;58.81
52719;BME280;38616;42.140;24.760;2023-05-27T08:40:44;99534.56;;;21.35;58.92
52719;BME280;38616;42.140;24.760;2023-05-27T08:43:09;99525.38;;;21.31;58.44
52719;BME280;38616;42.140;24.760;2023-05-27T08:45:36;99530.91;;;21.31;58.51
52719;BME280;38616;42.140;24.760;2023-05-27T08:48:02;99533.06;;;21.54;57.85
52719;BME280;38616;42.140;24.760;2023-05-27T08:50:27;99541.16;;;21.31;58.01
52719;BME280;38616;42.140;24.760;2023-05-27T08:52:54;99531.09;;;21.38;57.97
52719;BME280;38616;42.140;24.760;2023-05-27T08:55:20;99533.78;;;21.35;57.30
52719;BME280;38616;42.140;24.760;2023-05-27T08:57:55;99534.75;;;21.43;56.50
52719;BME280;38616;42.140;24.760;2023-05-27T09:00:22;99527.88;;;21.36;56.17
52719;BME280;38616;42.140;24.760;2023-05-27T09:02:48;99529.34;;;21.46;55.46
52719;BME280;38616;42.140;24.760;2023-05-27T09:05:15;99532.34;;;21.57;54.20
52719;BME280;38616;42.140;24.760;2023-05-27T09:07:41;99528.69;;;21.53;55.35
52719;BME280;38616;42.140;24.760;2023-05-27T09:10:07;99520.78;;;21.51;54.10
52719;BME280;38616;42.140;24.760;2023-05-27T09:12:33;99527.53;;;21.54;54.83
52719;BME280;38616;42.140;24.760;2023-05-27T09:14:59;99524.28;;;21.64;54.48
52719;BME280;38616;42.140;24.760;2023-05-27T09:17:25;99528.19;;;21.63;54.85
52719;BME280;38616;42.140;24.760;2023-05-27T09:19:54;99530.69;;;21.68;54.05
52719;BME280;38616;42.140;24.760;2023-05-27T09:24:46;99526.31;;;21.83;54.86
52719;BME280;38616;42.140;24.760;2023-05-27T09:27:11;99522.19;;;21.77;55.16
52719;BME280;38616;42.140;24.760;2023-05-27T09:29:38;99519.00;;;21.75;55.53
52719;BME280;38616;42.140;24.760;2023-05-27T09:32:05;99516.78;;;21.81;55.17
52719;BME280;38616;42.140;24.760;2023-05-27T09:34:38;99522.66;;;21.79;54.14
52719;BME280;38616;42.140;24.760;2023-05-27T09:37:04;99518.00;;;21.83;54.80
52719;BME280;38616;42.140;24.760;2023-05-27T09:39:29;99516.84;;;21.84;54.26
52719;BME280;38616;42.140;24.760;2023-05-27T09:41:55;99520.41;;;22.01;53.10
52719;BME280;38616;42.140;24.760;2023-05-27T09:44:27;99513.41;;;22.07;53.15
52719;BME280;38616;42.140;24.760;2023-05-27T09:46:53;99516.22;;;21.91;54.01
52719;BME280;38616;42.140;24.760;2023-05-27T09:49:19;99519.06;;;21.95;53.75
52719;BME280;38616;42.140;24.760;2023-05-27T09:51:46;99515.50;;;21.94;54.02
52719;BME280;38616;42.140;24.760;2023-05-27T09:54:18;99514.63;;;21.90;53.65
52719;BME280;38616;42.140;24.760;2023-05-27T09:56:44;99511.03;;;21.90;54.29
52719;BME280;38616;42.140;24.760;2023-05-27T09:59:11;99503.19;;;21.92;53.75
52719;BME280;38616;42.140;24.760;2023-05-27T10:01:39;99506.78;;;21.92;52.77
52719;BME280;38616;42.140;24.760;2023-05-27T10:04:05;99508.09;;;21.82;52.74
52719;BME280;38616;42.140;24.760;2023-05-27T10:06:32;99506.78;;;21.76;53.20
52719;BME280;38616;42.140;24.760;2023-05-27T10:08:58;99511.53;;;21.76;53.24
52719;BME280;38616;42.140;24.760;2023-05-27T10:11:26;99506.44;;;21.78;53.21
52719;BME280;38616;42.140;24.760;2023-05-27T10:13:55;99501.97;;;21.89;52.63
52719;BME280;38616;42.140;24.760;2023-05-27T10:16:22;99505.72;;;21.81;53.44
52719;BME280;38616;42.140;24.760;2023-05-27T10:18:52;99505.00;;;21.84;53.27
52719;BME280;38616;42.140;24.760;2023-05-27T10:21:19;99500.44;;;21.92;52.99
52719;BME280;38616;42.140;24.760;2023-05-27T10:23:59;99499.97;;;22.06;51.67
52719;BME280;38616;42.140;24.760;2023-05-27T10:26:35;99505.78;;;22.20;52.14
52719;BME280;38616;42.140;24.760;2023-05-27T10:29:15;99499.53;;;22.23;53.89
52719;BME280;38616;42.140;24.760;2023-05-27T10:31:50;99485.41;;;22.28;53.29
52719;BME280;38616;42.140;24.760;2023-05-27T10:34:15;99489.88;;;22.33;51.98
52719;BME280;38616;42.140;24.760;2023-05-27T10:36:41;99490.38;;;22.39;52.30
52719;BME280;38616;42.140;24.760;2023-05-27T10:39:17;99483.72;;;22.60;52.76
52719;BME280;38616;42.140;24.760;2023-05-27T10:41:52;99480.38;;;22.70;52.02
52719;BME280;38616;42.140;24.760;2023-05-27T10:44:28;99473.88;;;22.82;50.65
52719;BME280;38616;42.140;24.760;2023-05-27T10:49:32;99475.56;;;22.86;49.61
52719;BME280;38616;42.140;24.760;2023-05-27T10:52:15;99475.47;;;22.83;49.36
52719;BME280;38616;42.140;24.760;2023-05-27T10:54:45;99472.34;;;22.84;49.77
52719;BME280;38616;42.140;24.760;2023-05-27T10:57:11;99459.13;;;22.97;48.77
52719;BME280;38616;42.140;24.760;2023-05-27T10:59:50;99465.22;;;23.07;49.31
52719;BME280;38616;42.140;24.760;2023-05-27T11:02:18;99458.00;;;23.02;49.57
52719;BME280;38616;42.140;24.760;2023-05-27T11:04:44;99451.97;;;23.20;49.49
52719;BME280;38616;42.140;24.760;2023-05-27T11:07:10;99453.84;;;23.35;48.21
52719;BME280;38616;42.140;24.760;2023-05-27T11:09:47;99447.72;;;23.49;47.70
52719;BME280;38616;42.140;24.760;2023-05-27T11:12:14;99449.59;;;23.41;47.74
52719;BME280;38616;42.140;24.760;2023-05-27T11:17:28;99441.19;;;23.61;46.44
52719;BME280;38616;42.140;24.760;2023-05-27T11:19:55;99439.22;;;23.88;45.79
52719;BME280;38616;42.140;24.760;2023-05-27T11:22:20;99430.03;;;24.11;44.75
52719;BME280;38616;42.140;24.760;2023-05-27T11:25:02;99432.34;;;24.05;44.65
52719;BME280;38616;42.140;24.760;2023-05-27T11:27:38;99436.34;;;23.08;44.89
52719;BME280;38616;42.140;24.760;2023-05-27T11:30:09;99435.63;;;22.87;44.46
52719;BME280;38616;42.140;24.760;2023-05-27T11:32:35;99428.59;;;22.94;44.74
52719;BME280;38616;42.140;24.760;2023-05-27T11:35:01;99422.47;;;23.27;44.94
52719;BME280;38616;42.140;24.760;2023-05-27T11:37:34;99427.47;;;23.45;43.74
52719;BME280;38616;42.140;24.760;2023-05-27T11:40:00;99425.13;;;23.47;43.86
52719;BME280;38616;42.140;24.760;2023-05-27T11:42:28;99419.59;;;23.74;44.36
52719;BME280;38616;42.140;24.760;2023-05-27T11:44:54;99423.81;;;23.64;43.96
52719;BME280;38616;42.140;24.760;2023-05-27T11:47:21;99419.69;;;23.54;43.83
52719;BME280;38616;42.140;24.760;2023-05-27T11:49:48;99418.94;;;23.57;43.77
52719;BME280;38616;42.140;24.760;2023-05-27T11:52:13;99414.88;;;23.74;44.10
52719;BME280;38616;42.140;24.760;2023-05-27T11:54:39;99412.91;;;23.25;43.29
52719;BME280;38616;42.140;24.760;2023-05-27T11:57:05;99408.78;;;23.65;43.60
52719;BME280;38616;42.140;24.760;2023-05-27T11:59:33;99409.44;;;23.85;43.81
52719;BME280;38616;42.140;24.760;2023-05-27T12:01:59;99409.53;;;24.19;42.96
52719;BME280;38616;42.140;24.760;2023-05-27T12:04:25;99407.84;;;24.11;42.06
52719;BME280;38616;42.140;24.760;2023-05-27T12:06:50;99407.06;;;23.57;42.76
52719;BME280;38616;42.140;24.760;2023-05-27T12:09:16;99402.16;;;23.46;43.34
52719;BME280;38616;42.140;24.760;2023-05-27T12:11:42;99405.69;;;23.43;43.14
52719;BME280;38616;42.140;24.760;2023-05-27T12:14:07;99385.25;;;23.82;42.61
52719;BME280;38616;42.140;24.760;2023-05-27T12:16:33;99392.81;;;24.16;42.38
52719;BME280;38616;42.140;24.760;2023-05-27T12:18:58;99378.88;;;24.43;41.69
52719;BME280;38616;42.140;24.760;2023-05-27T12:21:24;99379.84;;;24.61;41.19
52719;BME280;38616;42.140;24.760;2023-05-27T12:23:50;99380.63;;;24.24;40.95
52719;BME280;38616;42.140;24.760;2023-05-27T12:26:16;99388.38;;;24.08;41.42
52719;BME280;38616;42.140;24.760;2023-05-27T12:28:42;99374.91;;;23.79;42.13
52719;BME280;38616;42.140;24.760;2023-05-27T12:31:07;99380.72;;;23.70;41.64
52719;BME280;38616;42.140;24.760;2023-05-27T12:33:33;99374.34;;;23.97;41.62
52719;BME280;38616;42.140;24.760;2023-05-27T12:35:59;99369.38;;;24.10;41.69
52719;BME280;38616;42.140;24.760;2023-05-27T12:38:25;99362.72;;;24.18;41.56
52719;BME280;38616;42.140;24.760;2023-05-27T12:40:50;99352.47;;;23.61;42.92
52719;BME280;38616;42.140;24.760;2023-05-27T12:43:17;99345.75;;;23.93;42.56
52719;BME280;38616;42.140;24.760;2023-05-27T12:45:42;99336.56;;;24.19;42.40
52719;BME280;38616;42.140;24.760;2023-05-27T12:48:08;99335.72;;;24.49;41.45
52719;BME280;38616;42.140;24.760;2023-05-27T12:50:33;99330.84;;;24.04;41.88
52719;BME280;38616;42.140;24.760;2023-05-27T12:52:59;99323.72;;;24.03;42.05
52719;BME280;38616;42.140;24.760;2023-05-27T12:55:25;99332.50;;;24.09;42.38
52719;BME280;38616;42.140;24.760;2023-05-27T12:57:52;99317.22;;;24.26;42.12
52719;BME280;38616;42.140;24.760;2023-05-27T13:00:19;99317.31;;;24.33;42.37
52719;BME280;38616;42.140;24.760;2023-05-27T13:02:46;99310.50;;;24.27;42.13
52719;BME280;38616;42.140;24.760;2023-05-27T13:05:16;99313.91;;;24.51;42.15